createdAt,value
2022-10-18T00:02:14.701Z,10.13
2022-10-18T00:04:40.537Z,11.50
2022-10-18T00:07:06.571Z,8.55
2022-10-18T00:09:32.612Z,10.05
2022-10-18T00:11:58.288Z,9.55
2022-10-18T00:14:24.004Z,12.20
2022-10-18T00:16:49.712Z,11.05
2022-10-18T00:19:15.643Z,11.90
2022-10-18T00:21:41.349Z,9.48
2022-10-18T00:24:07.433Z,10.25
2022-10-18T00:26:33.165Z,10.18
2022-10-18T00:29:01.263Z,9.60
2022-10-18T00:31:35.383Z,11.02
2022-10-18T00:34:06.888Z,11.20
2022-10-18T00:36:33.706Z,10.23
2022-10-18T00:39:00.415Z,13.00
2022-10-18T00:41:29.123Z,11.25
2022-10-18T00:44:00.822Z,9.98
2022-10-18T00:46:32.061Z,12.68
2022-10-18T00:49:03.342Z,11.32
2022-10-18T00:51:43.531Z,12.43
2022-10-18T00:54:10.388Z,9.13
2022-10-18T00:56:36.305Z,9.50
2022-10-18T00:59:02.481Z,10.73
2022-10-18T01:01:28.606Z,10.75
2022-10-18T01:03:55.435Z,11.38
2022-10-18T01:06:21.247Z,11.75
2022-10-18T01:09:28.304Z,13.70
2022-10-18T01:12:24.120Z,13.82
2022-10-18T01:15:18.381Z,10.40
2022-10-18T01:18:15.028Z,9.50
2022-10-18T01:21:02.783Z,7.97
2022-10-18T01:23:41.493Z,12.98
2022-10-18T01:26:16.452Z,9.75
2022-10-18T01:28:51.180Z,11.50
2022-10-18T01:31:22.650Z,11.10
2022-10-18T01:33:54.255Z,9.45
2022-10-18T01:36:39.411Z,10.88
2022-10-18T01:39:11.323Z,10.20
2022-10-18T01:41:40.457Z,9.57
2022-10-18T01:44:09.968Z,9.25
2022-10-18T01:46:36.992Z,10.65
2022-10-18T01:49:03.779Z,9.45
2022-10-18T01:51:31.985Z,12.45
2022-10-18T01:53:58.716Z,7.85
2022-10-18T01:56:41.827Z,11.15
2022-10-18T01:59:31.463Z,15.23
2022-10-18T02:02:09.239Z,10.95
2022-10-18T02:04:50.697Z,12.75
2022-10-18T02:07:26.829Z,12.88
2022-10-18T02:10:05.842Z,12.32
2022-10-18T02:12:33.261Z,9.73
2022-10-18T02:15:01.442Z,10.52
2022-10-18T02:17:29.708Z,11.55
2022-10-18T02:19:56.362Z,10.63
2022-10-18T02:22:26.941Z,9.27
2022-10-18T02:24:55.584Z,11.77
2022-10-18T02:27:22.237Z,10.73
2022-10-18T02:29:48.782Z,11.13
2022-10-18T02:32:25.592Z,12.40
2022-10-18T02:35:05.628Z,9.43
2022-10-18T02:37:38.108Z,13.00
2022-10-18T02:40:06.855Z,8.15
2022-10-18T02:42:43.549Z,12.18
2022-10-18T02:45:10.596Z,13.13
2022-10-18T02:47:36.275Z,11.35
2022-10-18T02:50:01.945Z,10.82
2022-10-18T02:52:27.605Z,10.00
2022-10-18T02:54:53.431Z,9.82
2022-10-18T02:57:19.253Z,11.63
2022-10-18T02:59:45.021Z,15.73
2022-10-18T03:02:10.773Z,11.93
2022-10-18T03:04:36.440Z,11.68
2022-10-18T03:07:02.095Z,10.85
2022-10-18T03:09:27.847Z,9.77
2022-10-18T03:11:53.552Z,9.98
2022-10-18T03:14:19.201Z,12.38
2022-10-18T03:16:44.909Z,9.07
2022-10-18T03:19:10.589Z,13.93
2022-10-18T03:21:36.257Z,12.20
2022-10-18T03:24:02.452Z,10.23
2022-10-18T03:26:28.285Z,13.25
2022-10-18T03:28:54.035Z,10.48
2022-10-18T03:31:19.934Z,10.50
2022-10-18T03:33:46.014Z,11.23
2022-10-18T03:36:11.956Z,8.98
2022-10-18T03:38:37.685Z,11.65
2022-10-18T03:41:03.773Z,12.10
2022-10-18T03:43:29.464Z,10.43
2022-10-18T03:45:55.443Z,12.05
2022-10-18T03:48:21.197Z,10.10
2022-10-18T03:50:47.113Z,10.38
2022-10-18T03:53:12.897Z,12.48
2022-10-18T03:55:38.976Z,13.48
2022-10-18T03:58:05.039Z,12.30
2022-10-18T04:00:30.729Z,11.20
2022-10-18T04:02:56.547Z,12.00
2022-10-18T04:05:23.416Z,10.75
2022-10-18T04:07:49.764Z,9.63
2022-10-18T04:10:15.513Z,10.85
2022-10-18T04:12:41.258Z,12.10
2022-10-18T04:15:07.479Z,9.48
2022-10-18T04:17:33.876Z,11.15
2022-10-18T04:19:59.800Z,9.25
2022-10-18T04:22:25.454Z,9.52
2022-10-18T04:24:52.919Z,15.25
2022-10-18T04:27:19.479Z,12.35
2022-10-18T04:29:45.396Z,9.70
2022-10-18T04:32:11.077Z,8.20
2022-10-18T04:34:36.892Z,10.38
2022-10-18T04:37:02.569Z,9.75
2022-10-18T04:39:28.353Z,9.73
2022-10-18T04:41:54.191Z,8.57
2022-10-18T04:44:19.855Z,11.63
2022-10-18T04:46:45.492Z,11.73
2022-10-18T04:49:11.343Z,11.00
2022-10-18T04:51:37.004Z,8.43
2022-10-18T04:54:02.672Z,11.07
2022-10-18T04:56:28.449Z,9.45
2022-10-18T04:58:54.164Z,14.00
2022-10-18T05:01:19.826Z,9.82
2022-10-18T05:03:45.499Z,14.25
2022-10-18T05:06:11.264Z,9.90
2022-10-18T05:08:37.689Z,13.05
2022-10-18T05:11:03.982Z,8.65
2022-10-18T05:13:30.440Z,10.63
2022-10-18T05:15:58.555Z,10.30
2022-10-18T05:18:24.629Z,10.30
2022-10-18T05:20:50.296Z,9.38
2022-10-18T05:23:15.990Z,9.13
2022-10-18T05:25:42.472Z,8.43
2022-10-18T05:28:10.751Z,15.00
2022-10-18T05:30:41.564Z,10.48
2022-10-18T05:33:11.585Z,11.70
2022-10-18T05:35:37.259Z,10.68
2022-10-18T05:38:05.126Z,9.57
2022-10-18T05:40:31.992Z,10.23
2022-10-18T05:42:58.153Z,9.52
2022-10-18T05:45:23.972Z,9.52
2022-10-18T05:47:49.735Z,10.35
2022-10-18T05:50:15.401Z,8.55
2022-10-18T05:52:41.181Z,11.45
2022-10-18T05:55:07.234Z,10.75
2022-10-18T05:57:33.256Z,8.95
2022-10-18T05:59:59.199Z,11.60
2022-10-18T06:02:24.870Z,10.90
2022-10-18T06:04:50.643Z,10.38
2022-10-18T06:07:16.606Z,9.85
2022-10-18T06:09:42.346Z,11.85
2022-10-18T06:12:08.335Z,9.52
2022-10-18T06:14:35.205Z,10.25
2022-10-18T06:17:00.857Z,12.30
2022-10-18T06:19:26.707Z,13.90
2022-10-18T06:21:52.423Z,10.23
2022-10-18T06:24:18.166Z,10.25
2022-10-18T06:26:44.180Z,12.35
2022-10-18T06:29:09.962Z,9.98
2022-10-18T06:31:35.648Z,11.25
2022-10-18T06:34:01.905Z,9.38
2022-10-18T06:36:27.687Z,11.77
2022-10-18T06:38:53.904Z,8.18
2022-10-18T06:41:19.717Z,10.50
2022-10-18T06:43:49.626Z,10.23
2022-10-18T06:46:15.560Z,10.00
2022-10-18T06:48:41.442Z,8.18
2022-10-18T06:51:07.940Z,10.05
2022-10-18T06:53:43.684Z,8.93
2022-10-18T06:56:14.389Z,9.82
2022-10-18T06:58:40.165Z,8.32
2022-10-18T07:01:08.374Z,8.00
2022-10-18T07:03:34.532Z,9.20
2022-10-18T07:06:01.996Z,10.32
2022-10-18T07:08:28.668Z,13.10
2022-10-18T07:10:54.636Z,8.50
2022-10-18T07:13:32.088Z,8.70
2022-10-18T07:16:00.475Z,10.57
2022-10-18T07:18:26.354Z,8.18
2022-10-18T07:20:52.024Z,10.13
2022-10-18T07:23:20.214Z,9.35
2022-10-18T07:25:46.305Z,7.75
2022-10-18T07:28:12.665Z,9.63
2022-10-18T07:30:38.317Z,10.95
2022-10-18T07:33:03.973Z,12.07
2022-10-18T07:35:29.657Z,10.82
2022-10-18T07:37:55.306Z,8.90
2022-10-18T07:40:21.042Z,9.68
2022-10-18T07:42:46.786Z,8.48
2022-10-18T07:45:12.975Z,10.27
2022-10-18T07:47:39.462Z,10.27
2022-10-18T07:50:05.914Z,8.27
2022-10-18T07:52:31.558Z,10.23
2022-10-18T07:54:57.190Z,11.15
2022-10-18T07:57:22.921Z,9.38
2022-10-18T07:59:55.276Z,10.95
2022-10-18T08:02:21.916Z,11.98
2022-10-18T08:04:47.733Z,12.07
2022-10-18T08:07:13.403Z,9.30
2022-10-18T08:09:39.093Z,9.95
2022-10-18T08:12:05.096Z,10.77
2022-10-18T08:14:30.841Z,10.60
2022-10-18T08:16:56.538Z,11.90
2022-10-18T08:19:22.231Z,9.85
2022-10-18T08:21:47.921Z,11.68
2022-10-18T08:24:13.585Z,10.55
2022-10-18T08:26:39.238Z,10.68
2022-10-18T08:29:22.536Z,8.32
2022-10-18T08:31:50.248Z,8.40
2022-10-18T08:34:19.711Z,10.63
2022-10-18T08:36:45.693Z,10.20
2022-10-18T08:39:11.362Z,8.82
2022-10-18T08:41:45.406Z,9.90
2022-10-18T08:44:27.426Z,9.90
2022-10-18T08:46:59.778Z,10.50
2022-10-18T08:49:48.494Z,10.07
2022-10-18T08:52:23.352Z,11.10
2022-10-18T08:54:58.734Z,10.82
2022-10-18T08:57:24.911Z,7.47
2022-10-18T08:59:50.589Z,8.32
2022-10-18T09:02:29.241Z,7.45
2022-10-18T09:05:24.202Z,8.60
2022-10-18T09:08:02.336Z,7.78
2022-10-18T09:10:34.390Z,6.35
2022-10-18T09:13:12.067Z,7.05
2022-10-18T09:15:56.755Z,7.10
2022-10-18T09:18:50.497Z,9.40
2022-10-18T09:21:44.176Z,4.82
2022-10-18T09:24:13.120Z,7.63
2022-10-18T09:26:54.306Z,5.60
2022-10-18T09:29:43.841Z,7.63
2022-10-18T09:32:38.476Z,6.43
2022-10-18T09:35:16.141Z,5.85
2022-10-18T09:37:43.639Z,7.22
2022-10-18T09:40:26.557Z,6.07
2022-10-18T09:43:29.792Z,4.88
2022-10-18T09:45:56.354Z,4.90
2022-10-18T09:48:33.853Z,5.22
2022-10-18T09:51:16.839Z,6.07
2022-10-18T09:53:59.540Z,3.92
2022-10-18T09:56:39.370Z,4.93
2022-10-18T09:59:27.272Z,4.65
2022-10-18T10:01:53.175Z,4.65
2022-10-18T10:04:18.827Z,6.97
2022-10-18T10:06:52.437Z,5.72
2022-10-18T10:09:25.623Z,4.60
2022-10-18T10:11:52.257Z,5.80
2022-10-18T10:14:24.835Z,4.68
2022-10-18T10:16:56.772Z,4.05
2022-10-18T10:19:26.378Z,5.28
2022-10-18T10:21:57.745Z,4.28
2022-10-18T10:24:48.698Z,4.07
2022-10-18T10:27:21.320Z,6.07
2022-10-18T10:29:47.032Z,6.60
2022-10-18T10:32:18.322Z,5.40
2022-10-18T10:34:45.045Z,3.78
2022-10-18T10:37:27.876Z,4.75
2022-10-18T10:40:19.813Z,3.63
2022-10-18T10:43:19.559Z,4.72
2022-10-18T10:46:13.636Z,4.63
2022-10-18T10:49:15.326Z,6.03
2022-10-18T10:51:42.915Z,4.63
2022-10-18T10:54:16.892Z,6.40
2022-10-18T10:56:55.976Z,4.75
2022-10-18T11:02:10.991Z,6.60
2022-10-18T11:04:37.759Z,6.20
2022-10-18T11:07:22.324Z,3.67
2022-10-18T11:09:55.335Z,7.60
2022-10-18T11:12:35.914Z,5.75
2022-10-18T11:15:27.962Z,5.72
2022-10-18T11:17:56.400Z,5.22
2022-10-18T11:20:44.993Z,5.45
2022-10-18T11:23:12.940Z,6.65
2022-10-18T11:25:59.892Z,4.90
2022-10-18T11:28:29.362Z,6.10
2022-10-18T11:31:22.487Z,9.70
2022-10-18T11:34:16.821Z,4.63
2022-10-18T11:37:37.571Z,6.03
2022-10-18T11:42:34.739Z,4.75
2022-10-18T11:45:02.266Z,5.93
2022-10-18T11:47:55.991Z,7.68
2022-10-18T11:50:36.696Z,8.52
2022-10-18T11:53:27.658Z,5.72
2022-10-18T11:56:02.101Z,7.60
2022-10-18T11:58:49.627Z,5.30
2022-10-18T12:01:24.672Z,7.80
2022-10-18T12:04:13.771Z,6.15
2022-10-18T12:06:42.187Z,5.80
2022-10-18T12:09:18.910Z,9.57
2022-10-18T12:11:55.798Z,7.80
2022-10-18T12:14:32.098Z,7.50
2022-10-18T12:17:38.966Z,6.22
2022-10-18T12:19:50.846Z,5.50
2022-10-18T12:22:32.192Z,6.10
2022-10-18T12:25:01.144Z,4.82
2022-10-18T12:27:45.552Z,6.65
2022-10-18T12:30:26.480Z,9.52
2022-10-18T12:33:26.699Z,8.05
2022-10-18T12:36:05.356Z,6.55
2022-10-18T12:38:34.603Z,7.03
2022-10-18T12:41:01.177Z,5.85
2022-10-18T12:43:33.383Z,7.60
2022-10-18T12:46:01.577Z,5.93
2022-10-18T12:48:39.252Z,5.05
2022-10-18T12:51:05.038Z,5.72
2022-10-18T12:53:31.848Z,7.60
2022-10-18T12:56:26.596Z,7.45
2022-10-18T12:58:52.572Z,6.60
2022-10-18T13:01:18.409Z,7.90
2022-10-18T13:03:54.669Z,6.80
2022-10-18T13:06:22.136Z,5.50
2022-10-18T13:09:07.918Z,6.53
2022-10-18T13:11:35.495Z,6.93
2022-10-18T13:16:42.640Z,8.57
2022-10-18T13:19:29.930Z,7.28
2022-10-18T13:22:14.098Z,6.60
2022-10-18T13:25:01.064Z,10.57
2022-10-18T13:27:47.591Z,7.10
2022-10-18T13:30:38.719Z,8.20
2022-10-18T13:33:26.618Z,6.40
2022-10-18T13:35:59.733Z,8.82
2022-10-18T13:38:57.415Z,6.38
2022-10-18T13:41:45.186Z,9.38
2022-10-18T13:44:25.020Z,6.75
2022-10-18T13:46:53.540Z,7.78
2022-10-18T13:49:39.264Z,8.30
2022-10-18T13:52:33.003Z,6.85
2022-10-18T13:55:26.729Z,8.98
2022-10-18T13:58:11.035Z,7.50
2022-10-18T14:01:14.410Z,5.38
2022-10-18T14:03:59.249Z,8.50
2022-10-18T14:06:31.851Z,7.75
2022-10-18T14:09:25.577Z,7.13
2022-10-18T14:12:25.078Z,6.32
2022-10-18T14:15:01.755Z,8.48
2022-10-18T14:20:28.562Z,8.25
2022-10-18T14:23:16.652Z,7.47
2022-10-18T14:25:43.190Z,7.35
2022-10-18T14:28:36.252Z,6.32
2022-10-18T14:31:11.844Z,6.72
2022-10-18T14:33:41.505Z,7.32
2022-10-18T14:36:15.569Z,8.63
2022-10-18T14:38:59.845Z,8.27
2022-10-18T14:41:28.472Z,10.38
2022-10-18T14:49:14.198Z,14.52
2022-10-18T14:51:42.945Z,7.28
2022-10-18T14:54:37.629Z,6.47
2022-10-18T14:57:04.981Z,7.15
2022-10-18T14:59:43.656Z,8.43
2022-10-18T15:02:14.214Z,7.03
2022-10-18T15:04:44.585Z,6.65
2022-10-18T15:07:16.556Z,7.95
2022-10-18T15:09:43.506Z,10.32
2022-10-18T15:12:12.897Z,9.32
2022-10-18T15:14:39.465Z,6.70
2022-10-18T15:17:14.875Z,7.53
2022-10-18T15:19:53.776Z,8.68
2022-10-18T15:22:32.150Z,6.03
2022-10-18T15:25:24.344Z,8.20
2022-10-18T15:27:55.796Z,7.78
2022-10-18T15:30:28.207Z,7.30
2022-10-18T15:33:02.024Z,8.77
2022-10-18T15:35:34.231Z,6.63
2022-10-18T15:38:12.508Z,7.10
2022-10-18T15:40:39.632Z,7.72
2022-10-18T15:46:03.231Z,5.88
2022-10-18T15:48:40.120Z,7.57
2022-10-18T15:51:38.692Z,5.82
2022-10-18T15:54:04.371Z,7.68
2022-10-18T15:56:37.541Z,8.40
2022-10-18T16:01:37.969Z,12.68
2022-10-18T16:04:14.683Z,9.00
2022-10-18T16:06:40.339Z,8.25
2022-10-18T16:09:06.293Z,8.80
2022-10-18T16:11:31.986Z,8.05
2022-10-18T16:14:00.416Z,9.45
2022-10-18T16:16:28.274Z,9.02
2022-10-18T16:18:54.493Z,9.10
2022-10-18T16:21:29.766Z,26.40
2022-10-18T16:23:55.682Z,16.70
2022-10-18T16:26:22.932Z,13.27
2022-10-18T16:28:49.220Z,11.80
2022-10-18T16:31:20.097Z,9.90
2022-10-18T16:33:46.664Z,9.88
2022-10-18T16:36:18.365Z,10.35
2022-10-18T16:38:45.057Z,10.35
2022-10-18T16:41:12.648Z,8.45
2022-10-18T16:43:39.119Z,10.48
2022-10-18T16:46:06.433Z,10.25
2022-10-18T16:48:32.371Z,10.25
2022-10-18T16:50:58.341Z,10.45
2022-10-18T16:53:25.400Z,10.40
2022-10-18T16:58:18.854Z,10.20
2022-10-18T17:00:46.169Z,12.45
2022-10-18T17:03:13.020Z,16.35
2022-10-18T17:05:40.156Z,11.35
2022-10-18T17:08:06.530Z,9.90
2022-10-18T17:10:32.665Z,11.43
2022-10-18T17:12:58.468Z,10.93
2022-10-18T17:15:24.272Z,11.02
2022-10-18T17:17:49.935Z,10.57
2022-10-18T17:20:23.136Z,10.02
2022-10-18T17:25:16.510Z,15.73
2022-10-18T17:27:43.069Z,14.13
2022-10-18T17:30:10.055Z,9.88
2022-10-18T17:32:36.113Z,11.13
2022-10-18T17:35:01.842Z,13.80
2022-10-18T17:37:27.657Z,10.55
2022-10-18T17:39:53.471Z,10.85
2022-10-18T17:42:20.855Z,11.43
2022-10-18T17:44:46.921Z,10.10
2022-10-18T17:47:13.519Z,10.20
2022-10-18T17:49:39.197Z,11.77
2022-10-18T17:52:06.981Z,8.82
2022-10-18T17:54:32.950Z,10.43
2022-10-18T17:56:58.673Z,9.20
2022-10-18T17:59:24.347Z,10.65
2022-10-18T18:01:50.057Z,11.02
2022-10-18T18:04:16.376Z,16.20
2022-10-18T18:06:42.060Z,10.18
2022-10-18T18:09:16.228Z,11.23
2022-10-18T18:11:44.294Z,10.00
2022-10-18T18:14:10.973Z,12.38
2022-10-18T18:16:39.674Z,9.00
2022-10-18T18:19:09.668Z,17.95
2022-10-18T18:21:36.560Z,13.00
2022-10-18T18:24:02.767Z,12.07
2022-10-18T18:26:33.139Z,13.02
2022-10-18T18:28:59.827Z,11.32
2022-10-18T18:31:27.594Z,10.02
2022-10-18T18:33:56.938Z,11.77
2022-10-18T18:39:21.906Z,9.50
2022-10-18T18:41:51.768Z,11.32
2022-10-18T18:44:19.026Z,10.40
2022-10-18T18:49:11.345Z,9.63
2022-10-18T18:51:38.794Z,11.55
2022-10-18T18:54:05.176Z,9.57
2022-10-18T18:56:31.054Z,10.23
2022-10-18T18:58:58.474Z,11.15
2022-10-18T19:01:30.310Z,10.70
2022-10-18T19:03:57.422Z,11.50
2022-10-18T19:06:28.335Z,13.07
2022-10-18T19:09:00.680Z,10.25
2022-10-18T19:11:30.282Z,18.17
2022-10-18T19:13:56.005Z,14.65
2022-10-18T19:16:33.827Z,16.50
2022-10-18T19:19:01.067Z,18.35
2022-10-18T19:23:57.730Z,17.98
2022-10-18T19:26:25.493Z,17.65
2022-10-18T19:28:51.304Z,17.02
2022-10-18T19:31:17.047Z,13.45
2022-10-18T19:33:48.749Z,16.02
2022-10-18T19:36:21.669Z,21.20
2022-10-18T19:38:47.307Z,13.80
2022-10-18T19:41:13.032Z,14.02
2022-10-18T19:43:38.818Z,19.50
2022-10-18T19:46:04.715Z,11.65
2022-10-18T19:48:30.474Z,13.32
2022-10-18T19:50:56.216Z,16.25
2022-10-18T19:53:21.899Z,15.63
2022-10-18T19:55:47.545Z,17.48
2022-10-18T19:58:13.369Z,16.27
2022-10-18T20:00:39.015Z,17.33
2022-10-18T20:03:04.675Z,17.52
2022-10-18T20:05:30.368Z,15.63
2022-10-18T20:07:56.293Z,14.30
2022-10-18T20:10:22.045Z,15.30
2022-10-18T20:12:47.724Z,13.27
2022-10-18T20:15:13.412Z,15.52
2022-10-18T20:17:39.182Z,15.38
2022-10-18T20:20:05.299Z,11.73
2022-10-18T20:22:31.991Z,14.88
2022-10-18T20:24:57.953Z,14.73
2022-10-18T20:27:23.647Z,15.60
2022-10-18T20:29:49.484Z,11.65
2022-10-18T20:32:15.377Z,13.27
2022-10-18T20:34:41.403Z,10.82
2022-10-18T20:37:07.122Z,13.00
2022-10-18T20:39:34.355Z,16.48
2022-10-18T20:42:00.025Z,23.58
2022-10-18T20:44:26.308Z,14.77
2022-10-18T20:46:51.996Z,17.08
2022-10-18T20:49:18.800Z,15.75
2022-10-18T20:51:45.206Z,25.48
2022-10-18T20:54:11.451Z,18.60
2022-10-18T20:56:38.106Z,19.48
2022-10-18T20:59:05.517Z,26.02
2022-10-18T21:01:33.150Z,31.23
2022-10-18T21:04:08.179Z,17.35
2022-10-18T21:06:36.765Z,19.85
2022-10-18T21:09:13.110Z,21.70
2022-10-18T21:11:41.410Z,20.58
2022-10-18T21:14:11.278Z,17.00
2022-10-18T21:16:37.269Z,42.67
2022-10-18T21:19:07.208Z,22.52
2022-10-18T21:21:33.772Z,24.27
2022-10-18T21:24:02.496Z,33.30
2022-10-18T21:26:31.326Z,16.85
2022-10-18T21:28:58.108Z,21.48
2022-10-18T21:31:28.773Z,22.38
2022-10-18T21:33:57.134Z,20.98
2022-10-18T21:36:23.387Z,13.90
2022-10-18T21:38:49.162Z,10.95
2022-10-18T21:41:17.015Z,19.42
2022-10-18T21:43:45.583Z,23.67
2022-10-18T21:46:13.123Z,11.85
2022-10-18T21:48:43.458Z,11.90
2022-10-18T21:51:09.251Z,11.55
2022-10-18T21:53:35.549Z,11.35
2022-10-18T21:56:10.348Z,11.23
2022-10-18T21:58:36.650Z,14.48
2022-10-18T22:01:13.724Z,11.73
2022-10-18T22:03:39.758Z,12.68
2022-10-18T22:06:12.783Z,15.48
2022-10-18T22:08:42.867Z,13.15
2022-10-18T22:11:09.207Z,12.90
2022-10-18T22:13:34.927Z,13.55
2022-10-18T22:16:02.617Z,15.40
2022-10-18T22:18:29.144Z,14.43
2022-10-18T22:21:00.292Z,12.93
2022-10-18T22:23:37.346Z,12.45
2022-10-18T22:26:06.910Z,12.98
2022-10-18T22:28:33.858Z,10.13
2022-10-18T22:30:59.950Z,10.40
2022-10-18T22:33:25.895Z,13.13
2022-10-18T22:35:51.614Z,12.98
2022-10-18T22:38:17.489Z,11.20
2022-10-18T22:40:43.885Z,12.20
2022-10-18T22:43:09.684Z,10.50
2022-10-18T22:45:35.457Z,14.13
2022-10-18T22:48:01.258Z,12.20
2022-10-18T22:50:26.976Z,13.65
2022-10-18T22:52:54.580Z,11.75
2022-10-18T22:55:20.525Z,12.75
2022-10-18T22:57:46.196Z,11.23
2022-10-18T23:00:12.260Z,12.57
2022-10-18T23:02:37.951Z,12.43
2022-10-18T23:05:03.938Z,11.65
2022-10-18T23:07:29.707Z,14.20
2022-10-18T23:09:55.422Z,16.27
2022-10-18T23:12:21.190Z,14.60
2022-10-18T23:14:46.870Z,18.75
2022-10-18T23:17:12.536Z,17.20
2022-10-18T23:19:38.286Z,16.35
2022-10-18T23:22:03.976Z,22.05
2022-10-18T23:24:30.047Z,16.15
2022-10-18T23:26:56.048Z,16.65
2022-10-18T23:29:21.712Z,16.42
2022-10-18T23:31:47.362Z,17.60
2022-10-18T23:34:13.181Z,14.75
2022-10-18T23:36:38.893Z,20.35
2022-10-18T23:39:05.441Z,17.92
2022-10-18T23:41:31.136Z,15.55
2022-10-18T23:43:57.261Z,17.45
2022-10-18T23:46:23.469Z,16.88
2022-10-18T23:48:49.146Z,16.27
2022-10-18T23:51:15.348Z,17.98
2022-10-18T23:53:41.084Z,18.55
2022-10-18T23:56:12.198Z,18.45
2022-10-18T23:58:38.750Z,16.55
